Time;durP1;ratioP1;P1;durP2;ratioP2;P2;SDS_P1;SDS_P2;PMS_P1;PMS_P2;Temp;Humidity;BMP_temperature;BMP_pressure;BME280_temperature;BME280_humidity;BME280_pressure;Samples;Min_cycle;Max_cycle;Signal;HPM_P1;HPM_P2
2021/08/13 00:00:49;;;;;;;8.82;7.93;;;22.50;99.90;;;;;;5066531;28;20221;-61
2021/08/13 00:03:14;;;;;;;8.50;7.60;;;22.50;99.90;;;;;;5053209;28;20188;-64
2021/08/13 00:05:40;;;;;;;10.52;8.00;;;22.50;99.90;;;;;;5053442;28;20532;-64
2021/08/13 00:08:06;;;;;;;8.30;7.05;;;22.40;99.90;;;;;;5052772;28;20195;-64
2021/08/13 00:10:32;;;;;;;8.60;7.70;;;22.40;99.90;;;;;;5058127;28;20273;-63
2021/08/13 00:12:58;;;;;;;8.32;7.53;;;22.40;99.90;;;;;;5076383;28;20191;-63
2021/08/13 00:15:25;;;;;;;8.45;7.65;;;22.30;99.90;;;;;;5076701;28;20175;-59
2021/08/13 00:17:51;;;;;;;8.10;7.30;;;22.40;99.90;;;;;;5076477;28;20171;-63
2021/08/13 00:20:17;;;;;;;9.13;7.35;;;22.40;99.90;;;;;;5075662;28;20211;-64
2021/08/13 00:22:42;;;;;;;8.52;7.72;;;22.30;99.90;;;;;;5056153;28;20184;-63
2021/08/13 00:25:08;;;;;;;7.93;7.13;;;22.20;99.90;;;;;;5056490;28;20171;-64
2021/08/13 00:27:33;;;;;;;9.17;7.30;;;22.30;99.90;;;;;;5063950;28;20639;-63
2021/08/13 00:29:59;;;;;;;8.23;7.40;;;22.20;99.90;;;;;;5076263;28;20170;-64
2021/08/13 00:32:24;;;;;;;9.50;7.87;;;22.20;99.90;;;;;;5075964;28;20174;-61
2021/08/13 00:34:50;;;;;;;8.07;7.25;;;22.10;99.90;;;;;;5076015;28;20205;-65
2021/08/13 00:37:16;;;;;;;8.10;7.35;;;22.00;99.90;;;;;;5074657;28;20179;-62
2021/08/13 00:39:42;;;;;;;7.30;6.60;;;22.10;99.90;;;;;;5076732;28;20281;-65
2021/08/13 00:42:07;;;;;;;9.00;6.83;;;22.00;99.90;;;;;;5076026;28;20205;-64
2021/08/13 00:44:33;;;;;;;8.77;7.13;;;22.00;99.90;;;;;;5073381;28;20230;-62
2021/08/13 00:46:58;;;;;;;7.37;6.67;;;22.00;99.90;;;;;;5073728;28;20177;-63
2021/08/13 00:49:24;;;;;;;7.60;6.90;;;21.90;99.90;;;;;;5073654;28;20166;-64
2021/08/13 00:51:50;;;;;;;7.47;6.77;;;21.90;99.90;;;;;;5073640;28;20177;-63
2021/08/13 00:54:15;;;;;;;9.00;7.20;;;21.80;99.90;;;;;;5072449;28;20187;-62
2021/08/13 00:56:41;;;;;;;9.13;7.20;;;21.90;99.90;;;;;;5074120;28;20171;-63
2021/08/13 00:59:09;;;;;;;8.67;7.77;;;21.70;99.90;;;;;;5074900;28;20198;-62
2021/08/13 01:01:35;;;;;;;7.90;7.10;;;21.80;99.90;;;;;;5075406;28;20213;-62
2021/08/13 01:04:01;;;;;;;7.80;7.10;;;21.80;99.90;;;;;;5075411;28;20237;-61
2021/08/13 01:06:27;;;;;;;8.70;7.30;;;21.80;99.90;;;;;;5072212;28;20642;-61
2021/08/13 01:08:53;;;;;;;9.47;7.47;;;21.70;99.90;;;;;;5073343;28;20187;-64
2021/08/13 01:11:42;;;;;;;8.00;7.10;;;21.70;99.90;;;;;;5073195;28;20562;-62
2021/08/13 01:14:27;;;;;;;8.10;7.30;;;21.70;99.90;;;;;;5072121;28;20767;-63
2021/08/13 01:16:55;;;;;;;8.07;7.03;;;21.70;99.90;;;;;;5073510;28;20175;-63
2021/08/13 01:19:31;;;;;;;9.33;7.50;;;21.70;99.90;;;;;;5073308;28;20530;-60
2021/08/13 01:22:16;;;;;;;8.40;7.50;;;21.60;99.90;;;;;;5073275;28;20666;-62
2021/08/13 01:24:46;;;;;;;7.47;6.77;;;21.60;99.90;;;;;;5074509;28;20191;-63
2021/08/13 01:27:20;;;;;;;8.30;7.33;;;21.70;99.90;;;;;;5075435;28;20162;-63
2021/08/13 01:30:08;;;;;;;7.40;6.70;;;21.60;99.90;;;;;;5075375;28;20178;-64
2021/08/13 01:32:45;;;;;;;7.87;7.07;;;21.60;99.90;;;;;;5074864;28;20178;-64
2021/08/13 01:35:14;;;;;;;8.50;7.37;;;21.60;99.90;;;;;;5075207;28;20163;-64
2021/08/13 01:37:45;;;;;;;7.80;7.10;;;21.50;99.90;;;;;;5075176;28;20251;-63
2021/08/13 01:40:13;;;;;;;7.57;6.87;;;21.60;99.90;;;;;;5075298;28;20198;-64
2021/08/13 01:42:40;;;;;;;8.07;7.23;;;21.60;99.90;;;;;;5074632;28;20163;-63
2021/08/13 01:45:07;;;;;;;8.00;6.97;;;21.50;99.90;;;;;;5075238;28;20163;-59
2021/08/13 01:47:33;;;;;;;7.77;6.87;;;21.50;99.90;;;;;;5075032;28;20170;-63
2021/08/13 01:50:00;;;;;;;8.20;7.40;;;21.60;99.90;;;;;;5074877;28;20535;-64
2021/08/13 01:52:27;;;;;;;7.30;6.60;;;21.60;99.90;;;;;;5074715;28;20174;-63
2021/08/13 01:54:53;;;;;;;8.43;7.63;;;21.70;99.90;;;;;;5074556;28;20187;-63
2021/08/13 01:57:20;;;;;;;7.47;6.77;;;21.40;99.90;;;;;;5074955;28;20190;-60
2021/08/13 01:59:46;;;;;;;9.50;6.83;;;21.40;99.90;;;;;;5074569;28;20194;-61
2021/08/13 02:02:12;;;;;;;7.50;6.80;;;21.40;99.90;;;;;;5074593;28;20182;-63
2021/08/13 02:04:42;;;;;;;7.77;6.77;;;21.40;99.90;;;;;;5074561;28;20195;-63
2021/08/13 02:07:10;;;;;;;8.63;6.90;;;21.40;99.90;;;;;;5074955;28;20173;-64
2021/08/13 02:09:36;;;;;;;7.93;7.10;;;21.30;99.90;;;;;;5074382;28;20187;-64
2021/08/13 02:12:02;;;;;;;8.17;7.13;;;21.30;99.90;;;;;;5074328;28;20171;-61
2021/08/13 02:14:27;;;;;;;7.77;6.97;;;21.30;99.90;;;;;;5074176;28;20519;-64
2021/08/13 02:16:55;;;;;;;7.97;7.20;;;21.30;99.90;;;;;;5074387;28;20167;-60
2021/08/13 02:19:27;;;;;;;9.23;7.20;;;21.30;99.90;;;;;;5074638;28;20189;-61
2021/08/13 02:21:53;;;;;;;8.70;7.80;;;21.30;99.90;;;;;;5074378;28;20641;-64
2021/08/13 02:24:19;;;;;;;8.37;7.57;;;21.20;99.90;;;;;;5074045;28;20195;-64
2021/08/13 02:26:45;;;;;;;9.27;7.53;;;21.20;99.90;;;;;;5074102;28;20174;-60
2021/08/13 02:29:11;;;;;;;8.10;7.30;;;21.20;99.90;;;;;;5074133;28;20622;-61
2021/08/13 02:31:37;;;;;;;8.53;7.63;;;21.20;99.90;;;;;;5073896;28;20185;-62
2021/08/13 02:34:02;;;;;;;8.77;7.50;;;21.10;99.90;;;;;;5073222;28;20654;-64
2021/08/13 02:36:41;;;;;;;7.83;7.13;;;20.90;99.90;;;;;;5074005;28;20249;-63
2021/08/13 02:39:15;;;;;;;8.77;7.67;;;21.20;99.90;;;;;;5073867;28;20170;-62
2021/08/13 02:41:43;;;;;;;8.53;7.43;;;21.20;99.90;;;;;;5074102;28;20198;-64
2021/08/13 02:44:11;;;;;;;8.47;7.63;;;21.10;99.90;;;;;;5074108;28;20190;-63
2021/08/13 02:46:42;;;;;;;8.53;6.83;;;21.10;99.90;;;;;;5073732;28;20247;-62
2021/08/13 02:49:10;;;;;;;8.10;7.30;;;21.10;99.90;;;;;;5073904;28;20170;-63
2021/08/13 02:51:40;;;;;;;7.80;6.97;;;21.10;99.90;;;;;;5073988;28;20240;-64
2021/08/13 02:54:07;;;;;;;8.13;7.33;;;21.00;99.90;;;;;;5073952;28;20256;-64
2021/08/13 02:56:34;;;;;;;8.23;6.83;;;21.00;99.90;;;;;;5073758;28;20284;-63
2021/08/13 02:59:03;;;;;;;8.33;7.50;;;20.90;99.90;;;;;;5074011;28;20232;-64
2021/08/13 03:01:32;;;;;;;8.33;7.17;;;20.90;99.90;;;;;;5073549;28;20191;-63
2021/08/13 03:03:58;;;;;;;9.33;7.30;;;21.00;99.90;;;;;;5073808;28;20183;-64
2021/08/13 03:06:30;;;;;;;8.70;7.17;;;20.90;99.90;;;;;;5073527;28;20638;-61
2021/08/13 03:08:58;;;;;;;8.40;7.20;;;20.90;99.90;;;;;;5073538;28;20523;-62
2021/08/13 03:11:25;;;;;;;8.07;7.27;;;20.90;99.90;;;;;;5073450;28;20179;-64
2021/08/13 03:13:53;;;;;;;7.77;6.97;;;20.80;99.90;;;;;;5073493;28;20244;-62
2021/08/13 03:16:18;;;;;;;8.43;6.97;;;20.70;99.90;;;;;;5073899;28;20174;-64
2021/08/13 03:18:45;;;;;;;8.50;7.07;;;20.70;99.90;;;;;;5073526;28;20224;-60
2021/08/13 03:21:11;;;;;;;7.60;6.80;;;20.70;99.90;;;;;;5073232;28;20198;-63
2021/08/13 03:23:38;;;;;;;9.70;7.27;;;20.60;99.90;;;;;;5073269;28;20768;-64
2021/08/13 03:26:04;;;;;;;9.87;7.60;;;20.60;99.90;;;;;;5072191;28;20178;-63
2021/08/13 03:28:30;;;;;;;7.73;7.03;;;20.50;99.90;;;;;;5073189;28;20173;-61
2021/08/13 03:30:56;;;;;;;8.23;6.70;;;20.50;99.90;;;;;;5073539;28;20171;-64
2021/08/13 03:33:22;;;;;;;9.13;7.13;;;20.50;99.90;;;;;;5073327;28;20194;-64
2021/08/13 03:35:49;;;;;;;7.87;7.00;;;20.50;99.90;;;;;;5073306;28;20177;-63
2021/08/13 03:38:14;;;;;;;8.77;6.87;;;20.50;99.90;;;;;;5073275;28;20176;-62
2021/08/13 03:40:40;;;;;;;8.17;7.00;;;20.50;99.90;;;;;;5073097;28;20209;-63
2021/08/13 03:43:06;;;;;;;8.33;7.53;;;20.40;99.90;;;;;;5073111;28;20217;-64
2021/08/13 03:45:33;;;;;;;7.77;7.03;;;20.50;99.90;;;;;;5074942;28;20174;-64
2021/08/13 03:47:58;;;;;;;8.87;7.30;;;20.50;99.90;;;;;;5077705;28;20171;-63
2021/08/13 03:50:24;;;;;;;8.33;6.83;;;20.50;99.90;;;;;;5077114;28;20221;-64
2021/08/13 03:52:50;;;;;;;8.27;7.20;;;20.40;99.90;;;;;;5076791;28;20167;-60
2021/08/13 03:55:15;;;;;;;8.70;7.43;;;20.40;99.90;;;;;;5077201;28;20192;-64
2021/08/13 03:57:41;;;;;;;7.90;6.80;;;20.40;99.90;;;;;;5077064;28;20238;-63
2021/08/13 04:00:08;;;;;;;8.67;7.00;;;20.40;99.90;;;;;;5077018;28;20194;-64
2021/08/13 04:02:34;;;;;;;9.60;7.50;;;20.40;99.90;;;;;;5076792;28;20248;-63
2021/08/13 04:05:00;;;;;;;8.43;7.23;;;20.40;99.90;;;;;;5077149;28;20205;-62
2021/08/13 04:07:25;;;;;;;7.83;7.03;;;20.40;99.90;;;;;;5076900;28;20261;-64
2021/08/13 04:09:51;;;;;;;8.40;7.00;;;20.40;99.90;;;;;;5076919;28;20283;-63
2021/08/13 04:12:16;;;;;;;8.43;6.93;;;20.40;99.90;;;;;;5076472;28;20243;-61
2021/08/13 04:14:42;;;;;;;8.30;7.30;;;20.40;99.90;;;;;;5076711;28;20240;-63
2021/08/13 04:17:07;;;;;;;9.07;7.57;;;20.40;99.90;;;;;;5077119;28;20187;-63
2021/08/13 04:19:33;;;;;;;7.57;6.87;;;20.40;99.90;;;;;;5076553;28;20182;-64
2021/08/13 04:21:58;;;;;;;8.23;6.73;;;20.40;99.90;;;;;;5076339;28;20175;-64
2021/08/13 04:24:24;;;;;;;8.67;7.03;;;20.40;99.90;;;;;;5076637;28;20204;-63
2021/08/13 04:26:49;;;;;;;7.53;6.80;;;20.40;99.90;;;;;;5076702;28;20249;-61
2021/08/13 04:29:15;;;;;;;9.80;7.43;;;20.50;99.90;;;;;;5076570;28;20627;-63
2021/08/13 04:31:40;;;;;;;8.63;7.70;;;20.50;99.90;;;;;;5076422;28;20175;-61
2021/08/13 04:34:06;;;;;;;8.77;7.20;;;20.50;99.90;;;;;;5076399;28;20658;-64
2021/08/13 04:36:32;;;;;;;8.30;7.27;;;20.60;99.90;;;;;;5076374;28;20174;-64
2021/08/13 04:38:57;;;;;;;9.40;7.13;;;20.60;99.90;;;;;;5076512;28;20178;-64
2021/08/13 04:41:23;;;;;;;9.63;7.10;;;20.60;99.90;;;;;;5076262;28;20554;-64
2021/08/13 04:43:48;;;;;;;9.00;7.30;;;20.70;99.90;;;;;;5076131;28;20607;-64
2021/08/13 04:46:14;;;;;;;7.73;7.00;;;20.70;99.90;;;;;;5076056;28;20171;-63
2021/08/13 04:48:39;;;;;;;7.23;6.50;;;20.70;99.90;;;;;;5057678;28;20176;-63
2021/08/13 04:51:05;;;;;;;7.87;7.07;;;20.70;99.90;;;;;;5056636;28;20206;-64
2021/08/13 04:53:31;;;;;;;11.17;8.00;;;20.70;99.90;;;;;;5055542;28;20586;-62
2021/08/13 04:55:56;;;;;;;9.20;7.20;;;20.70;99.90;;;;;;5055906;28;20222;-64
2021/08/13 04:58:22;;;;;;;7.57;6.73;;;20.70;99.90;;;;;;5055507;28;20176;-64
2021/08/13 05:00:48;;;;;;;8.83;7.67;;;20.90;99.90;;;;;;5055607;28;20268;-60
2021/08/13 05:03:14;;;;;;;7.43;6.73;;;20.90;99.90;;;;;;5055808;28;20705;-64
2021/08/13 05:05:39;;;;;;;7.90;6.50;;;21.00;99.90;;;;;;5055928;28;20176;-59
2021/08/13 05:08:05;;;;;;;8.07;7.27;;;21.00;99.90;;;;;;5055620;28;20171;-61
2021/08/13 05:10:31;;;;;;;6.83;6.13;;;21.10;99.90;;;;;;5055591;28;20209;-62
2021/08/13 05:12:56;;;;;;;8.57;7.67;;;21.10;99.90;;;;;;5056004;28;20203;-62
2021/08/13 05:15:22;;;;;;;8.37;7.20;;;21.20;99.90;;;;;;5055687;28;20224;-64
2021/08/13 05:17:48;;;;;;;9.30;7.57;;;21.20;99.90;;;;;;5055967;28;20508;-65
2021/08/13 05:20:13;;;;;;;7.47;6.70;;;21.30;99.90;;;;;;5055484;28;20199;-62
2021/08/13 05:22:39;;;;;;;10.90;6.87;;;21.30;99.90;;;;;;5055299;28;20183;-62
2021/08/13 05:25:10;;;;;;;8.03;6.73;;;21.30;99.90;;;;;;5055702;28;20167;-62
2021/08/13 05:27:37;;;;;;;7.50;6.80;;;21.50;99.90;;;;;;5063308;28;20190;-64
2021/08/13 05:30:04;;;;;;;7.83;7.10;;;21.60;99.90;;;;;;5075162;28;20526;-62
2021/08/13 05:32:30;;;;;;;7.37;6.67;;;21.70;99.90;;;;;;5075139;28;20182;-63
2021/08/13 05:34:55;;;;;;;8.03;7.23;;;21.70;99.90;;;;;;5075415;28;20195;-64
2021/08/13 05:37:21;;;;;;;8.33;7.37;;;21.80;99.90;;;;;;5075186;28;20197;-63
2021/08/13 05:39:47;;;;;;;8.50;7.63;;;21.90;99.90;;;;;;5075368;28;20178;-64
2021/08/13 05:42:13;;;;;;;14.10;7.50;;;22.00;99.90;;;;;;5075020;28;20177;-61
2021/08/13 05:44:39;;;;;;;8.10;7.30;;;22.00;99.90;;;;;;5074836;28;20608;-63
2021/08/13 05:47:05;;;;;;;9.23;8.30;;;22.00;99.90;;;;;;5075357;28;20171;-63
2021/08/13 05:49:31;;;;;;;9.48;8.05;;;22.10;99.90;;;;;;5075259;28;20216;-64
2021/08/13 05:52:00;;;;;;;8.77;7.68;;;22.20;99.90;;;;;;5065168;28;20266;-59
2021/08/13 05:54:27;;;;;;;9.02;8.15;;;22.40;99.90;;;;;;5053540;28;20204;-61
2021/08/13 05:56:53;;;;;;;9.85;8.85;;;22.50;99.90;;;;;;5054693;28;20538;-60
2021/08/13 05:59:18;;;;;;;8.75;7.85;;;22.70;99.90;;;;;;5054705;28;20629;-63
2021/08/13 06:01:43;;;;;;;8.65;7.85;;;22.70;99.90;;;;;;5054831;28;20206;-62
2021/08/13 06:04:09;;;;;;;9.13;8.23;;;22.80;99.90;;;;;;5059243;28;20208;-63
2021/08/13 06:06:34;;;;;;;7.97;7.18;;;22.80;99.90;;;;;;5074522;28;20187;-60
2021/08/13 06:09:01;;;;;;;8.35;7.45;;;22.90;99.90;;;;;;5072887;28;20546;-59
2021/08/13 06:11:26;;;;;;;8.93;8.02;;;23.00;99.90;;;;;;5073904;28;20185;-57
2021/08/13 06:13:52;;;;;;;10.50;7.80;;;23.00;99.90;;;;;;5074025;28;20200;-60
2021/08/13 06:16:19;;;;;;;8.32;7.53;;;22.80;99.90;;;;;;5074012;28;20190;-62
2021/08/13 06:18:44;;;;;;;8.27;7.28;;;22.70;99.90;;;;;;5075156;28;20174;-61
2021/08/13 06:21:10;;;;;;;8.18;7.30;;;22.70;99.90;;;;;;5074202;28;20201;-62
2021/08/13 06:23:35;;;;;;;8.80;7.70;;;22.90;99.90;;;;;;5073593;28;20193;-64
2021/08/13 06:26:01;;;;;;;7.68;6.97;;;22.90;99.90;;;;;;5073052;28;20243;-63
2021/08/13 06:28:27;;;;;;;7.47;6.78;;;23.10;99.90;;;;;;5074503;28;20664;-64
2021/08/13 06:30:52;;;;;;;8.43;7.63;;;23.20;99.90;;;;;;5073078;28;20171;-64
2021/08/13 06:33:18;;;;;;;8.05;7.13;;;23.40;99.90;;;;;;5073838;28;20202;-64
2021/08/13 06:35:43;;;;;;;8.60;7.68;;;23.50;99.90;;;;;;5074490;28;20503;-64
2021/08/13 06:38:09;;;;;;;8.90;7.47;;;23.40;99.90;;;;;;5074497;28;20182;-62
2021/08/13 06:40:35;;;;;;;7.70;6.90;;;23.40;99.90;;;;;;5074806;28;20576;-63
2021/08/13 06:43:01;;;;;;;8.32;7.43;;;23.40;99.90;;;;;;5073660;28;20202;-62
2021/08/13 06:45:28;;;;;;;8.07;7.25;;;23.20;99.90;;;;;;5073060;28;20193;-62
2021/08/13 06:47:53;;;;;;;8.18;7.45;;;23.30;99.90;;;;;;5074270;28;20519;-63
2021/08/13 06:50:19;;;;;;;8.80;7.93;;;23.10;99.90;;;;;;5074224;28;20167;-63
2021/08/13 06:52:45;;;;;;;9.68;8.05;;;23.20;99.90;;;;;;5074057;28;20176;-64
2021/08/13 06:55:11;;;;;;;8.70;7.90;;;23.40;99.90;;;;;;5074173;28;20178;-63
2021/08/13 06:57:37;;;;;;;8.70;7.88;;;23.60;99.90;;;;;;5073959;28;20179;-64
2021/08/13 07:00:05;;;;;;;10.15;8.88;;;23.80;99.90;;;;;;5073884;28;20289;-62
2021/08/13 07:02:30;;;;;;;10.35;8.30;;;23.80;99.90;;;;;;5074160;28;20170;-62
2021/08/13 07:04:56;;;;;;;10.32;9.05;;;24.00;99.90;;;;;;5074072;28;20562;-63
2021/08/13 07:07:21;;;;;;;8.65;7.65;;;24.00;99.90;;;;;;5074297;28;20167;-63
2021/08/13 07:09:47;;;;;;;8.77;7.95;;;24.00;99.90;;;;;;5072731;28;20669;-64
2021/08/13 07:12:17;;;;;;;8.15;7.35;;;24.20;99.90;;;;;;5073837;28;20167;-64
2021/08/13 07:14:43;;;;;;;9.63;7.60;;;24.40;99.90;;;;;;5073863;28;20595;-64
2021/08/13 07:17:09;;;;;;;9.80;7.95;;;24.50;99.90;;;;;;5072957;28;20179;-61
2021/08/13 07:19:35;;;;;;;9.23;8.32;;;24.60;99.90;;;;;;5073874;28;20167;-63
2021/08/13 07:22:01;;;;;;;11.00;7.63;;;24.60;99.90;;;;;;5073563;28;20202;-62
2021/08/13 07:24:26;;;;;;;9.05;8.18;;;24.60;99.90;;;;;;5074431;28;20201;-62
2021/08/13 07:26:52;;;;;;;9.55;8.52;;;24.40;99.90;;;;;;5073748;28;20171;-64
2021/08/13 07:29:18;;;;;;;10.13;9.05;;;24.40;99.90;;;;;;5072653;28;20174;-63
2021/08/13 07:31:43;;;;;;;10.23;9.13;;;24.30;99.90;;;;;;5073427;28;20178;-63
2021/08/13 07:34:09;;;;;;;9.10;8.15;;;24.20;99.90;;;;;;5072307;28;20199;-61
2021/08/13 07:36:34;;;;;;;9.10;8.20;;;24.10;99.90;;;;;;5074134;28;20225;-62
2021/08/13 07:39:00;;;;;;;11.30;9.13;;;24.40;99.90;;;;;;5073477;28;20224;-64
2021/08/13 07:41:26;;;;;;;9.13;7.75;;;24.30;99.90;;;;;;5072975;28;20629;-60
2021/08/13 07:43:51;;;;;;;9.18;8.05;;;24.30;99.90;;;;;;5073368;28;20244;-62
2021/08/13 07:46:17;;;;;;;10.43;8.23;;;24.50;99.90;;;;;;5073628;28;20171;-63
2021/08/13 07:48:43;;;;;;;8.65;7.68;;;24.80;99.90;;;;;;5073724;28;20645;-64
2021/08/13 07:51:08;;;;;;;10.07;8.52;;;25.10;99.90;;;;;;5073588;28;20212;-63
2021/08/13 07:53:34;;;;;;;10.50;8.07;;;25.20;99.90;;;;;;5073431;28;20198;-64
2021/08/13 07:56:00;;;;;;;11.10;8.35;;;25.20;99.90;;;;;;5073740;28;20259;-64
2021/08/13 07:58:25;;;;;;;10.95;9.02;;;25.20;99.90;;;;;;5073301;28;20592;-62
2021/08/13 08:00:52;;;;;;;9.07;8.27;;;25.10;99.90;;;;;;5073234;28;20619;-64
2021/08/13 08:03:18;;;;;;;8.52;7.72;;;25.10;99.90;;;;;;5073337;28;20206;-64
2021/08/13 08:05:44;;;;;;;8.35;7.50;;;25.40;99.90;;;;;;5073164;28;20511;-63
2021/08/13 08:08:09;;;;;;;9.32;8.40;;;25.60;99.90;;;;;;5073119;28;20661;-64
2021/08/13 08:10:35;;;;;;;9.35;8.20;;;25.50;99.90;;;;;;5073173;28;20244;-64
2021/08/13 08:13:00;;;;;;;9.18;7.88;;;25.50;99.90;;;;;;5073158;28;20194;-64
2021/08/13 08:15:26;;;;;;;8.90;8.10;;;25.30;99.90;;;;;;5073505;28;20174;-63
2021/08/13 08:17:51;;;;;;;10.80;8.50;;;25.20;99.90;;;;;;5072986;28;20178;-61
2021/08/13 08:20:17;;;;;;;9.38;8.48;;;25.20;99.90;;;;;;5073183;28;20191;-62
2021/08/13 08:22:43;;;;;;;8.75;7.95;;;25.40;99.90;;;;;;5071709;28;20175;-65
2021/08/13 08:25:09;;;;;;;10.15;8.07;;;25.60;99.90;;;;;;5072897;28;20170;-63
2021/08/13 08:27:35;;;;;;;10.68;9.63;;;25.70;99.90;;;;;;5072973;28;20631;-65
2021/08/13 08:30:01;;;;;;;11.73;8.73;;;25.70;99.90;;;;;;5073283;28;20178;-65
2021/08/13 08:32:27;;;;;;;9.20;8.30;;;25.70;99.90;;;;;;5074855;28;20179;-64
2021/08/13 08:34:52;;;;;;;9.82;8.75;;;25.70;99.90;;;;;;5076866;28;20650;-65
2021/08/13 08:37:18;;;;;;;11.05;8.80;;;25.70;99.90;;;;;;5076660;28;20684;-65
2021/08/13 08:39:45;;;;;;;12.68;9.93;;;25.70;99.90;;;;;;5076802;28;20175;-64
2021/08/13 08:42:19;;;;;;;10.70;9.65;;;25.70;99.90;;;;;;5076495;28;20174;-64
2021/08/13 08:44:46;;;;;;;10.98;9.63;;;25.80;99.90;;;;;;5076880;28;20193;-61
2021/08/13 08:47:13;;;;;;;10.02;9.02;;;26.00;99.90;;;;;;5076753;28;20225;-61
2021/08/13 08:49:40;;;;;;;13.23;9.45;;;26.30;99.90;;;;;;5076667;28;20712;-62
2021/08/13 08:52:07;;;;;;;10.80;9.52;;;26.50;99.90;;;;;;5076060;28;20638;-64
2021/08/13 08:54:35;;;;;;;11.40;10.30;;;26.70;99.90;;;;;;5076404;28;20195;-63
2021/08/13 08:57:02;;;;;;;11.20;10.10;;;26.60;99.90;;;;;;5075997;28;20186;-65
2021/08/13 08:59:28;;;;;;;11.80;9.23;;;26.60;99.90;;;;;;5076330;28;20623;-64
2021/08/13 09:01:53;;;;;;;10.43;9.32;;;26.60;99.90;;;;;;5075782;28;20242;-64
2021/08/13 09:04:19;;;;;;;13.75;9.98;;;26.70;99.90;;;;;;5075859;28;20186;-63
2021/08/13 09:06:44;;;;;;;10.57;8.95;;;26.50;99.90;;;;;;5076075;28;20179;-65
2021/08/13 09:09:10;;;;;;;10.50;9.40;;;26.40;99.90;;;;;;5075916;28;20187;-64
2021/08/13 09:11:39;;;;;;;9.60;8.60;;;26.60;99.90;;;;;;5074755;28;20179;-63
2021/08/13 09:14:08;;;;;;;11.00;9.90;;;26.70;99.90;;;;;;5075938;28;20202;-65
2021/08/13 09:16:33;;;;;;;10.60;9.35;;;26.60;99.90;;;;;;5081662;28;20645;-63
2021/08/13 09:19:04;;;;;;;9.95;8.95;;;26.70;99.90;;;;;;5088198;28;20174;-63
2021/08/13 09:21:31;;;;;;;8.77;8.02;;;26.60;99.90;;;;;;5081899;28;20247;-64
2021/08/13 09:24:00;;;;;;;9.43;8.52;;;26.50;99.90;;;;;;5084262;28;20206;-63
2021/08/13 09:26:28;;;;;;;8.75;7.88;;;26.60;99.90;;;;;;5095613;28;20170;-63
2021/08/13 09:28:55;;;;;;;9.02;8.13;;;27.10;99.90;;;;;;5055659;28;20183;-63
2021/08/13 09:31:21;;;;;;;8.93;8.02;;;27.40;99.90;;;;;;5074800;28;20588;-65
2021/08/13 09:33:49;;;;;;;9.23;8.25;;;27.80;99.90;;;;;;5075345;28;20719;-63
2021/08/13 09:36:17;;;;;;;9.68;8.77;;;28.20;99.90;;;;;;5074096;28;20213;-65
2021/08/13 09:38:43;;;;;;;9.00;8.10;;;28.20;99.90;;;;;;5075445;28;20221;-64
2021/08/13 09:41:11;;;;;;;8.60;7.65;;;28.40;99.90;;;;;;5075473;28;20260;-63
2021/08/13 09:44:01;;;;;;;8.73;7.93;;;28.50;99.90;;;;;;5074830;28;20187;-62
2021/08/13 09:46:30;;;;;;;7.22;6.53;;;28.40;99.90;;;;;;5075346;28;20171;-65
2021/08/13 09:49:15;;;;;;;8.77;7.90;;;28.50;99.90;;;;;;5075360;28;20225;-62
2021/08/13 09:51:41;;;;;;;9.18;8.13;;;28.60;99.90;;;;;;5075694;28;20174;-62
2021/08/13 09:54:09;;;;;;;8.80;7.90;;;28.70;99.90;;;;;;5074907;28;20301;-62
2021/08/13 09:56:37;;;;;;;10.73;8.50;;;28.80;99.90;;;;;;5073462;28;20172;-64
2021/08/13 09:59:15;;;;;;;9.48;8.50;;;28.70;99.90;;;;;;5073844;28;20183;-64
2021/08/13 10:01:45;;;;;;;9.98;7.50;;;28.50;99.90;;;;;;5076537;28;20202;-62
2021/08/13 10:04:12;;;;;;;8.85;7.95;;;28.40;99.90;;;;;;5091283;28;20190;-65
2021/08/13 10:06:39;;;;;;;8.85;8.05;;;28.40;99.90;;;;;;5079294;28;20638;-65
2021/08/13 10:09:05;;;;;;;8.75;7.85;;;28.40;99.90;;;;;;5086070;28;20194;-64
2021/08/13 10:11:35;;;;;;;8.10;7.40;;;28.40;99.90;;;;;;5079322;28;20263;-63
2021/08/13 10:14:02;;;;;;;8.40;7.60;;;28.50;99.90;;;;;;5076209;28;20240;-65
2021/08/13 10:16:29;;;;;;;9.18;8.38;;;28.60;99.90;;;;;;5064181;28;20177;-65
2021/08/13 10:18:55;;;;;;;8.63;7.35;;;28.90;99.90;;;;;;5079489;28;20185;-64
2021/08/13 10:21:26;;;;;;;8.63;7.82;;;29.20;99.90;;;;;;5069622;28;20194;-64
2021/08/13 10:23:53;;;;;;;8.32;7.53;;;29.40;99.90;;;;;;5084317;28;20224;-64
2021/08/13 10:26:23;;;;;;;8.50;7.60;;;29.60;99.90;;;;;;5079921;28;20308;-64
2021/08/13 10:28:50;;;;;;;8.55;7.75;;;30.00;99.90;;;;;;5054816;28;20176;-64
2021/08/13 10:31:18;;;;;;;8.82;7.70;;;30.30;99.90;;;;;;5054492;28;20183;-64
2021/08/13 10:33:45;;;;;;;10.35;7.85;;;30.60;99.90;;;;;;5054842;28;20226;-64
2021/08/13 10:36:16;;;;;;;8.55;7.40;;;30.80;99.90;;;;;;5071934;28;20174;-64
2021/08/13 10:38:42;;;;;;;9.05;8.25;;;31.00;99.90;;;;;;5094510;28;20200;-65
2021/08/13 10:41:08;;;;;;;10.45;8.32;;;30.80;99.90;;;;;;5094127;28;20202;-64
2021/08/13 10:43:37;;;;;;;10.13;8.55;;;30.80;99.90;;;;;;5094459;28;20186;-62
2021/08/13 10:46:06;;;;;;;9.90;8.90;;;30.90;99.90;;;;;;5094500;28;20174;-64
2021/08/13 10:48:33;;;;;;;9.85;8.90;;;31.10;99.90;;;;;;5094421;28;20162;-63
2021/08/13 10:51:00;;;;;;;8.93;7.95;;;30.80;99.90;;;;;;5093949;28;20253;-63
2021/08/13 10:53:37;;;;;;;9.25;8.30;;;30.80;99.90;;;;;;5070258;28;20187;-63
2021/08/13 10:56:05;;;;;;;9.93;8.98;;;30.70;99.90;;;;;;5053346;28;20262;-65
2021/08/13 10:58:51;;;;;;;13.15;8.98;;;30.70;99.90;;;;;;5054260;28;20179;-65
2021/08/13 11:01:21;;;;;;;9.35;8.13;;;30.70;99.90;;;;;;5053402;28;20203;-63
2021/08/13 11:03:53;;;;;;;10.60;9.60;;;30.80;99.90;;;;;;5053925;28;20180;-63
2021/08/13 11:06:39;;;;;;;11.52;10.52;;;30.70;99.90;;;;;;5053873;28;20240;-64
2021/08/13 11:09:05;;;;;;;15.93;10.07;;;30.90;99.90;;;;;;5053620;28;20191;-66
2021/08/13 11:11:51;;;;;;;10.20;9.23;;;30.90;99.90;;;;;;5053568;28;20171;-63
2021/08/13 11:14:25;;;;;;;11.38;10.13;;;30.90;99.90;;;;;;5049754;28;20206;-65
2021/08/13 11:16:51;;;;;;;9.82;8.93;;;30.90;99.90;;;;;;5057783;28;20209;-63
2021/08/13 11:19:19;;;;;;;11.30;10.10;;;30.80;99.90;;;;;;5064450;28;20170;-65
2021/08/13 11:21:50;;;;;;;11.40;8.95;;;30.90;99.90;;;;;;5053360;28;20207;-64
2021/08/13 11:24:18;;;;;;;9.65;8.75;;;30.90;99.90;;;;;;5052736;28;20286;-64
2021/08/13 11:26:53;;;;;;;10.27;9.32;;;31.20;99.90;;;;;;5053814;28;20206;-64
2021/08/13 11:29:28;;;;;;;11.05;9.93;;;31.50;99.90;;;;;;5053360;28;20526;-63
2021/08/13 11:31:55;;;;;;;11.85;10.68;;;31.30;99.90;;;;;;5053507;28;20224;-63
2021/08/13 11:34:49;;;;;;;11.80;9.95;;;31.00;99.90;;;;;;5053279;28;20199;-65
2021/08/13 11:37:43;;;;;;;13.90;12.48;;;31.00;99.90;;;;;;5053675;28;20210;-64
2021/08/13 11:40:12;;;;;;;11.30;10.30;;;31.10;99.90;;;;;;5053503;28;20689;-65
2021/08/13 11:42:45;;;;;;;9.45;8.50;;;31.20;99.90;;;;;;5053245;28;20631;-63
2021/08/13 11:45:11;;;;;;;11.55;9.48;;;31.50;99.90;;;;;;5053930;28;20198;-65
2021/08/13 11:47:37;;;;;;;11.15;9.60;;;31.70;99.90;;;;;;5053427;28;20175;-64
2021/08/13 11:50:07;;;;;;;10.20;9.15;;;31.80;99.90;;;;;;5053205;28;20654;-64
2021/08/13 11:52:35;;;;;;;11.02;9.90;;;31.90;99.90;;;;;;5053082;28;20151;-63
2021/08/13 11:55:24;;;;;;;10.80;9.48;;;32.40;99.90;;;;;;5053649;28;20171;-64
2021/08/13 11:57:54;;;;;;;10.70;9.60;;;32.30;99.90;;;;;;5054029;28;20167;-64
2021/08/13 12:00:21;;;;;;;10.90;8.63;;;32.20;99.90;;;;;;5053638;28;20624;-66
2021/08/13 12:02:47;;;;;;;14.40;10.48;;;32.30;99.90;;;;;;5053210;28;20171;-66
2021/08/13 12:05:14;;;;;;;10.57;9.35;;;32.50;99.90;;;;;;5053288;28;20293;-65
2021/08/13 12:07:40;;;;;;;8.88;8.07;;;32.70;99.90;;;;;;5056693;28;20587;-66
2021/08/13 12:10:14;;;;;;;9.27;8.43;;;33.30;99.90;;;;;;5056768;28;20187;-63
2021/08/13 12:12:40;;;;;;;12.38;11.18;;;33.80;99.90;;;;;;5056685;28;20171;-63
2021/08/13 12:15:07;;;;;;;9.95;8.98;;;33.70;99.90;;;;;;5057106;28;20183;-64
2021/08/13 12:17:33;;;;;;;10.95;9.95;;;33.80;99.90;;;;;;5057368;28;20497;-65
2021/08/13 12:20:00;;;;;;;10.18;9.18;;;33.70;99.90;;;;;;5056931;28;20686;-64
2021/08/13 12:22:33;;;;;;;8.98;8.18;;;33.40;99.90;;;;;;5056835;28;20194;-64
2021/08/13 12:24:59;;;;;;;11.52;10.35;;;33.30;99.90;;;;;;5056754;28;20164;-65
2021/08/13 12:27:32;;;;;;;10.80;8.70;;;33.60;99.90;;;;;;5056267;28;20176;-65
2021/08/13 12:29:59;;;;;;;9.48;8.57;;;33.90;99.90;;;;;;5056958;28;20197;-65
2021/08/13 12:32:54;;;;;;;10.95;9.85;;;34.20;99.90;;;;;;5056743;28;20171;-64
2021/08/13 12:35:21;;;;;;;11.57;10.13;;;34.10;99.90;;;;;;5034356;28;20191;-64
2021/08/13 12:37:47;;;;;;;10.20;9.15;;;34.10;99.90;;;;;;5034617;28;20537;-65
2021/08/13 12:40:14;;;;;;;10.20;9.20;;;34.00;99.90;;;;;;5033794;28;20207;-66
2021/08/13 12:42:43;;;;;;;9.15;8.25;;;34.10;99.90;;;;;;5032853;28;20211;-66
2021/08/13 12:45:10;;;;;;;9.27;8.38;;;34.20;99.90;;;;;;5034285;28;20578;-63